createdAt,value
2017-11-29T00:01:23.173Z,14.10
2017-11-29T00:03:51.002Z,14.17
2017-11-29T00:06:19.248Z,13.90
2017-11-29T00:08:46.748Z,13.40
2017-11-29T00:11:14.256Z,17.00
2017-11-29T00:13:42.444Z,13.47
2017-11-29T00:16:10.299Z,18.80
2017-11-29T00:18:38.263Z,22.57
2017-11-29T00:21:06.437Z,14.40
2017-11-29T00:23:33.959Z,14.97
2017-11-29T00:26:01.464Z,14.43
2017-11-29T00:28:29.239Z,16.00
2017-11-29T00:30:57.045Z,15.73
2017-11-29T00:33:24.565Z,15.27
2017-11-29T00:35:52.150Z,16.80
2017-11-29T00:38:19.655Z,12.93
2017-11-29T00:40:47.156Z,19.53
2017-11-29T00:43:15.228Z,17.13
2017-11-29T00:45:42.746Z,12.50
2017-11-29T00:48:11.348Z,11.23
2017-11-29T00:50:38.906Z,11.73
2017-11-29T00:53:06.416Z,11.30
2017-11-29T00:55:34.075Z,12.00
2017-11-29T00:58:01.784Z,9.00
2017-11-29T01:00:29.292Z,10.23
2017-11-29T01:02:56.794Z,9.13
2017-11-29T01:05:24.415Z,11.40
2017-11-29T01:07:51.925Z,12.00
2017-11-29T01:10:19.784Z,9.80
2017-11-29T01:12:48.112Z,9.93
2017-11-29T01:15:16.218Z,11.00
2017-11-29T01:17:43.740Z,12.10
2017-11-29T01:20:11.515Z,9.40
2017-11-29T01:22:39.065Z,12.67
2017-11-29T01:25:06.601Z,10.10
2017-11-29T01:27:34.205Z,13.53
2017-11-29T01:30:01.716Z,9.90
2017-11-29T01:32:30.209Z,16.63
2017-11-29T01:34:58.373Z,16.50
2017-11-29T01:37:25.879Z,15.73
2017-11-29T01:39:53.411Z,17.23
2017-11-29T01:42:21.333Z,19.07
2017-11-29T01:44:48.841Z,26.73
2017-11-29T01:47:16.881Z,22.93
2017-11-29T01:49:44.876Z,24.00
2017-11-29T01:52:13.227Z,23.80
2017-11-29T01:54:41.428Z,24.43
2017-11-29T01:57:09.122Z,22.73
2017-11-29T01:59:36.632Z,26.90
2017-11-29T02:02:04.136Z,22.30
2017-11-29T02:04:31.712Z,23.10
2017-11-29T02:06:59.221Z,20.00
2017-11-29T02:09:26.764Z,27.87
2017-11-29T02:11:54.328Z,29.37
2017-11-29T02:14:21.846Z,29.93
2017-11-29T02:16:50.340Z,21.27
2017-11-29T02:19:18.649Z,26.97
2017-11-29T02:21:46.147Z,23.70
2017-11-29T02:24:14.016Z,20.13
2017-11-29T02:26:41.569Z,27.77
2017-11-29T02:29:10.219Z,25.97
2017-11-29T02:31:38.394Z,31.07
2017-11-29T02:34:05.996Z,26.57
2017-11-29T02:36:33.508Z,30.30
2017-11-29T02:39:01.017Z,26.20
2017-11-29T02:41:40.250Z,30.90
2017-11-29T02:44:07.765Z,20.10
2017-11-29T02:46:35.282Z,18.97
2017-11-29T02:49:02.844Z,24.93
2017-11-29T02:51:30.794Z,25.57
2017-11-29T02:53:58.308Z,18.90
2017-11-29T02:56:25.963Z,23.53
2017-11-29T02:58:53.472Z,20.07
2017-11-29T03:01:20.981Z,16.90
2017-11-29T03:03:48.525Z,19.00
2017-11-29T03:06:16.041Z,22.30
2017-11-29T03:08:43.555Z,24.73
2017-11-29T03:11:11.108Z,14.20
2017-11-29T03:13:39.194Z,15.03
2017-11-29T03:16:06.802Z,12.57
2017-11-29T03:18:34.500Z,12.83
2017-11-29T03:21:02.050Z,13.67
2017-11-29T03:23:29.627Z,15.43
2017-11-29T03:25:57.653Z,18.20
2017-11-29T03:28:25.579Z,16.13
2017-11-29T03:30:53.817Z,11.27
2017-11-29T03:33:21.355Z,17.10
2017-11-29T03:35:48.856Z,11.80
2017-11-29T03:38:16.420Z,15.83
2017-11-29T03:40:43.928Z,13.70
2017-11-29T03:43:11.441Z,16.27
2017-11-29T03:45:38.986Z,14.73
2017-11-29T03:48:06.509Z,8.70
2017-11-29T03:50:34.687Z,9.88
2017-11-29T03:53:02.017Z,7.13
2017-11-29T03:55:29.520Z,9.73
2017-11-29T03:57:57.348Z,6.18
2017-11-29T04:00:24.903Z,9.50
2017-11-29T04:02:52.412Z,5.17
2017-11-29T04:05:19.928Z,5.00
2017-11-29T04:07:47.755Z,5.03
2017-11-29T04:10:15.291Z,7.50
2017-11-29T04:12:42.929Z,5.78
2017-11-29T04:15:11.118Z,6.60
2017-11-29T04:17:39.202Z,7.40
2017-11-29T04:20:06.804Z,6.47
2017-11-29T04:22:34.493Z,4.72
2017-11-29T04:25:02.017Z,6.47
2017-11-29T04:27:29.536Z,7.95
2017-11-29T04:29:57.102Z,7.55
2017-11-29T04:32:24.615Z,4.75
2017-11-29T04:34:52.115Z,8.85
2017-11-29T04:37:20.177Z,6.40
2017-11-29T04:39:47.672Z,9.00
2017-11-29T04:42:15.188Z,9.02
2017-11-29T04:44:42.756Z,7.28
2017-11-29T04:47:10.769Z,11.90
2017-11-29T04:49:38.289Z,11.38
2017-11-29T04:52:06.502Z,11.47
2017-11-29T04:54:34.288Z,10.57
2017-11-29T04:57:01.791Z,12.87
2017-11-29T04:59:29.360Z,7.20
2017-11-29T05:01:57.921Z,11.17
2017-11-29T05:04:25.443Z,10.80
2017-11-29T05:06:53.004Z,12.20
2017-11-29T05:09:20.508Z,8.97
2017-11-29T05:11:48.013Z,11.50
2017-11-29T05:14:15.589Z,10.13
2017-11-29T05:16:43.099Z,17.00
2017-11-29T05:19:10.657Z,15.00
2017-11-29T05:21:38.226Z,16.80
2017-11-29T05:24:05.746Z,20.15
2017-11-29T05:26:33.787Z,25.70
2017-11-29T05:29:01.335Z,22.58
2017-11-29T05:31:28.852Z,17.58
2017-11-29T05:33:56.359Z,22.90
2017-11-29T05:36:23.964Z,20.20
2017-11-29T05:38:51.808Z,19.33
2017-11-29T05:41:19.322Z,15.13
2017-11-29T05:43:46.896Z,20.73
2017-11-29T05:46:14.411Z,22.60
2017-11-29T05:48:41.927Z,22.98
2017-11-29T05:51:09.471Z,21.50
2017-11-29T05:53:37.000Z,25.13
2017-11-29T05:56:04.841Z,26.23
2017-11-29T05:58:32.421Z,27.20
2017-11-29T06:00:59.935Z,24.53
2017-11-29T06:03:27.456Z,24.07
2017-11-29T06:05:55.725Z,29.02
2017-11-29T06:08:23.885Z,27.67
2017-11-29T06:10:52.168Z,26.37
2017-11-29T06:13:21.176Z,28.40
2017-11-29T06:15:48.688Z,40.50
2017-11-29T06:18:16.525Z,34.53
2017-11-29T06:20:44.084Z,27.27
2017-11-29T06:23:11.788Z,33.07
2017-11-29T06:25:39.305Z,28.45
2017-11-29T06:28:06.893Z,37.90
2017-11-29T06:30:34.405Z,24.47
2017-11-29T06:33:02.426Z,37.05
2017-11-29T06:35:29.997Z,34.93
2017-11-29T06:37:58.278Z,36.37
2017-11-29T06:40:26.772Z,40.87
2017-11-29T06:42:54.404Z,39.57
2017-11-29T06:45:21.915Z,39.73
2017-11-29T06:47:49.628Z,62.13
2017-11-29T06:50:17.210Z,42.87
2017-11-29T06:52:45.492Z,54.17
2017-11-29T06:55:14.592Z,49.20
2017-11-29T06:57:42.168Z,41.07
2017-11-29T07:00:09.676Z,43.40
2017-11-29T07:02:37.191Z,39.57
2017-11-29T07:05:05.153Z,41.13
2017-11-29T07:07:32.747Z,35.43
2017-11-29T07:10:01.023Z,39.40
2017-11-29T07:12:28.552Z,41.20
2017-11-29T07:14:56.136Z,49.27
2017-11-29T07:17:23.669Z,52.97
2017-11-29T07:19:51.199Z,49.28
2017-11-29T07:22:18.769Z,59.10
2017-11-29T07:24:46.280Z,49.07
2017-11-29T07:27:14.334Z,51.03
2017-11-29T07:29:41.900Z,41.77
2017-11-29T07:32:09.907Z,46.07
2017-11-29T07:34:37.416Z,39.30
2017-11-29T07:37:05.892Z,44.35
2017-11-29T07:39:33.406Z,38.43
2017-11-29T07:42:00.925Z,49.77
2017-11-29T07:44:28.489Z,39.30
2017-11-29T07:46:57.278Z,32.83
2017-11-29T07:49:24.793Z,27.40
2017-11-29T07:51:52.573Z,25.20
2017-11-29T07:54:20.085Z,21.67
2017-11-29T07:56:47.812Z,21.73
2017-11-29T07:59:15.386Z,25.30
2017-11-29T08:01:42.900Z,25.67
2017-11-29T08:04:10.408Z,21.03
2017-11-29T08:06:37.965Z,26.13
2017-11-29T08:09:05.481Z,25.87
2017-11-29T08:11:33.149Z,24.53
2017-11-29T08:14:00.718Z,26.53
2017-11-29T08:16:28.231Z,34.40
2017-11-29T08:18:55.735Z,27.60
2017-11-29T08:21:23.845Z,28.87
2017-11-29T08:23:51.440Z,27.13
2017-11-29T08:26:19.532Z,24.27
2017-11-29T08:28:47.101Z,25.07
2017-11-29T08:31:14.604Z,13.83
2017-11-29T08:33:42.629Z,20.33
2017-11-29T08:36:10.200Z,20.77
2017-11-29T08:38:37.703Z,19.33
2017-11-29T08:41:05.985Z,18.77
2017-11-29T08:43:33.852Z,15.97
2017-11-29T08:46:01.369Z,17.03
2017-11-29T08:48:28.872Z,18.10
2017-11-29T08:50:56.602Z,17.50
2017-11-29T08:53:24.112Z,15.13
2017-11-29T08:55:51.620Z,16.47
2017-11-29T08:58:19.244Z,18.20
2017-11-29T09:00:46.951Z,17.23
2017-11-29T09:03:14.461Z,20.00
2017-11-29T09:05:41.975Z,15.13
2017-11-29T09:08:09.545Z,14.10
2017-11-29T09:10:37.061Z,15.37
2017-11-29T09:13:05.047Z,19.70
2017-11-29T09:15:32.609Z,20.13
2017-11-29T09:17:59.952Z,27.50
2017-11-29T09:20:27.619Z,22.20
2017-11-29T09:22:55.200Z,18.60
2017-11-29T09:25:22.745Z,16.30
2017-11-29T09:27:50.316Z,16.80
2017-11-29T09:30:17.824Z,12.93
2017-11-29T09:32:45.338Z,13.93
2017-11-29T09:35:12.900Z,12.57
2017-11-29T09:37:40.413Z,15.73
2017-11-29T09:40:08.157Z,12.67
2017-11-29T09:42:35.733Z,11.77
2017-11-29T09:45:03.444Z,14.23
2017-11-29T09:47:30.944Z,15.27
2017-11-29T09:49:58.497Z,11.50
2017-11-29T09:52:26.008Z,11.30
2017-11-29T09:54:53.548Z,13.53
2017-11-29T09:57:21.161Z,14.63
2017-11-29T09:59:49.424Z,10.87
2017-11-29T10:02:16.924Z,10.60
2017-11-29T10:04:44.481Z,9.50
2017-11-29T10:07:11.992Z,11.30
2017-11-29T10:09:39.605Z,12.80
2017-11-29T10:12:07.183Z,9.97
2017-11-29T10:14:34.868Z,11.50
2017-11-29T10:17:02.369Z,7.90
2017-11-29T10:19:30.304Z,10.20
2017-11-29T10:21:57.820Z,10.20
2017-11-29T10:24:25.333Z,7.53
2017-11-29T10:26:52.897Z,9.80
2017-11-29T10:29:21.169Z,8.50
2017-11-29T10:31:48.668Z,6.03
2017-11-29T10:34:16.225Z,6.80
2017-11-29T10:36:43.746Z,8.43
2017-11-29T10:39:12.013Z,10.17
2017-11-29T10:41:39.827Z,8.73
2017-11-29T10:44:07.332Z,6.53
2017-11-29T10:46:34.847Z,7.30
2017-11-29T10:49:02.400Z,5.80
2017-11-29T10:51:29.900Z,5.53
2017-11-29T10:53:57.406Z,6.73
2017-11-29T10:56:24.960Z,5.83
2017-11-29T10:58:52.527Z,5.87
2017-11-29T11:01:20.205Z,7.07
2017-11-29T11:03:47.724Z,6.40
2017-11-29T11:06:15.336Z,4.67
2017-11-29T11:08:42.901Z,5.83
2017-11-29T11:11:10.412Z,5.37
2017-11-29T11:13:38.694Z,7.77
2017-11-29T11:16:06.244Z,5.57
2017-11-29T11:18:33.806Z,8.00
2017-11-29T11:21:02.072Z,6.80
2017-11-29T11:23:29.640Z,6.20
2017-11-29T11:25:57.143Z,8.13
2017-11-29T11:28:24.649Z,6.30
2017-11-29T11:30:52.220Z,6.70
2017-11-29T11:33:19.739Z,6.73
2017-11-29T11:35:47.244Z,7.10
2017-11-29T11:38:14.790Z,5.23
2017-11-29T11:40:42.300Z,7.13
2017-11-29T11:43:10.363Z,4.87
2017-11-29T11:45:37.900Z,6.23
2017-11-29T11:48:05.417Z,4.63
2017-11-29T11:50:33.292Z,8.30
2017-11-29T11:53:02.377Z,5.97
2017-11-29T11:55:29.909Z,8.23
2017-11-29T11:57:57.504Z,6.30
2017-11-29T12:00:25.048Z,10.33
2017-11-29T12:02:52.543Z,6.23
2017-11-29T12:05:20.880Z,15.43
2017-11-29T12:07:48.383Z,8.00
2017-11-29T12:10:15.883Z,6.30
2017-11-29T12:12:43.447Z,7.70
2017-11-29T12:15:10.962Z,8.40
2017-11-29T12:17:38.475Z,6.87
2017-11-29T12:20:06.027Z,13.60
2017-11-29T12:22:34.501Z,14.10
2017-11-29T12:25:02.030Z,18.20
2017-11-29T12:27:29.598Z,12.63
2017-11-29T12:29:57.107Z,11.67
2017-11-29T12:32:24.659Z,7.37
2017-11-29T12:34:52.228Z,8.23
2017-11-29T12:37:20.540Z,8.30
2017-11-29T12:39:48.047Z,8.10
2017-11-29T12:42:15.653Z,8.07
2017-11-29T12:44:43.159Z,7.47
2017-11-29T12:47:10.661Z,7.10
2017-11-29T12:49:50.755Z,8.33
2017-11-29T12:52:18.255Z,5.83
2017-11-29T12:54:45.757Z,7.80
2017-11-29T12:57:13.311Z,6.10
2017-11-29T12:59:40.808Z,8.30
2017-11-29T13:02:08.316Z,10.80
2017-11-29T13:04:36.612Z,14.37
2017-11-29T13:07:04.121Z,12.97
2017-11-29T13:09:31.696Z,10.57
2017-11-29T13:11:59.963Z,8.17
2017-11-29T13:14:27.474Z,8.83
2017-11-29T13:16:55.060Z,7.67
2017-11-29T13:19:22.560Z,6.70
2017-11-29T13:21:50.825Z,8.30
2017-11-29T13:24:18.393Z,6.50
2017-11-29T13:26:45.942Z,6.67
2017-11-29T13:29:13.452Z,8.53
2017-11-29T13:31:41.094Z,8.70
2017-11-29T13:34:08.608Z,6.30
2017-11-29T13:36:36.116Z,9.13
2017-11-29T13:39:03.756Z,6.73
2017-11-29T13:41:31.257Z,9.77
2017-11-29T13:43:58.772Z,11.90
2017-11-29T13:46:27.080Z,11.93
2017-11-29T13:48:54.580Z,7.70
2017-11-29T13:51:22.091Z,9.40
2017-11-29T13:53:49.655Z,11.90
2017-11-29T13:56:17.161Z,11.00
2017-11-29T13:58:44.662Z,8.00
2017-11-29T14:01:12.204Z,10.13
2017-11-29T14:03:40.481Z,8.90
2017-11-29T14:06:08.932Z,11.60
2017-11-29T14:08:36.492Z,12.17
2017-11-29T14:11:04.020Z,12.10
2017-11-29T14:13:32.021Z,11.43
2017-11-29T14:16:02.191Z,12.07
2017-11-29T14:18:29.592Z,14.47
2017-11-29T14:20:57.279Z,13.17
2017-11-29T14:23:24.828Z,14.27
2017-11-29T14:25:53.149Z,13.40
2017-11-29T14:28:20.720Z,16.80
2017-11-29T14:30:48.228Z,14.23
2017-11-29T14:33:16.501Z,12.67
2017-11-29T14:35:44.922Z,16.83
2017-11-29T14:38:12.424Z,14.57
2017-11-29T14:40:39.925Z,16.87
2017-11-29T14:43:07.521Z,14.90
2017-11-29T14:45:35.241Z,10.87
2017-11-29T14:48:03.510Z,12.97
2017-11-29T14:50:31.797Z,12.20
2017-11-29T14:52:59.365Z,16.47
2017-11-29T14:55:26.873Z,12.93
2017-11-29T14:57:54.383Z,13.20
2017-11-29T15:00:21.943Z,12.17
2017-11-29T15:02:49.561Z,12.27
2017-11-29T15:05:17.069Z,15.93
2017-11-29T15:07:44.692Z,15.97
2017-11-29T15:10:12.191Z,14.17
2017-11-29T15:12:39.696Z,13.47
2017-11-29T15:15:07.252Z,16.60
2017-11-29T15:17:35.632Z,14.33
2017-11-29T15:20:03.136Z,16.20
2017-11-29T15:22:30.694Z,16.03
2017-11-29T15:24:58.193Z,17.53
2017-11-29T15:27:25.700Z,13.17
2017-11-29T15:29:54.049Z,23.20
2017-11-29T15:32:21.556Z,14.00
2017-11-29T15:34:49.220Z,17.10
2017-11-29T15:37:16.890Z,18.87
2017-11-29T15:39:44.395Z,21.10
2017-11-29T15:42:11.900Z,19.93
2017-11-29T15:44:39.464Z,19.70
2017-11-29T15:47:06.974Z,18.30
2017-11-29T15:49:34.479Z,21.80
2017-11-29T15:52:02.122Z,22.67
2017-11-29T15:54:30.404Z,25.53
2017-11-29T15:56:57.912Z,24.50
2017-11-29T15:59:25.472Z,25.47
2017-11-29T16:01:52.976Z,28.20
2017-11-29T16:04:21.236Z,22.03
2017-11-29T16:06:49.559Z,27.17
2017-11-29T16:09:17.072Z,22.60
2017-11-29T16:11:44.601Z,35.40
2017-11-29T16:14:12.144Z,24.87
2017-11-29T16:16:39.656Z,32.60
2017-11-29T16:19:07.173Z,26.00
2017-11-29T16:21:34.847Z,29.60
2017-11-29T16:24:02.349Z,24.80
2017-11-29T16:26:30.486Z,25.50
2017-11-29T16:28:58.053Z,34.23
2017-11-29T16:31:26.328Z,32.70
2017-11-29T16:33:53.836Z,41.43
2017-11-29T16:36:21.387Z,37.42
2017-11-29T16:38:48.904Z,36.73
2017-11-29T16:41:17.197Z,37.07
2017-11-29T16:43:45.521Z,33.83
2017-11-29T16:46:13.033Z,33.35
2017-11-29T16:48:40.551Z,41.73
2017-11-29T16:51:08.204Z,41.23
2017-11-29T16:53:35.721Z,40.07
2017-11-29T16:56:03.236Z,40.77
2017-11-29T16:58:30.887Z,43.93
2017-11-29T17:00:58.340Z,35.23
2017-11-29T17:03:25.852Z,38.50
2017-11-29T17:05:53.595Z,56.35
2017-11-29T17:08:21.180Z,49.80
2017-11-29T17:10:48.691Z,47.37
2017-11-29T17:13:16.204Z,50.20
2017-11-29T17:15:43.776Z,41.17
2017-11-29T17:18:11.316Z,42.83
2017-11-29T17:20:39.165Z,48.42
2017-11-29T17:23:06.736Z,52.50
2017-11-29T17:25:34.250Z,64.83
2017-11-29T17:28:01.773Z,74.10
2017-11-29T17:30:29.337Z,73.37
2017-11-29T17:32:56.859Z,63.17
2017-11-29T17:35:25.836Z,73.60
2017-11-29T17:37:53.403Z,76.18
2017-11-29T17:40:21.689Z,68.97
2017-11-29T17:42:49.993Z,89.80
2017-11-29T17:45:17.569Z,79.65
2017-11-29T17:47:44.855Z,69.35
2017-11-29T17:50:12.369Z,63.70
2017-11-29T17:52:40.635Z,77.30
2017-11-29T17:55:08.472Z,70.60
2017-11-29T17:57:35.982Z,67.27
2017-11-29T18:00:03.854Z,80.33
2017-11-29T18:05:05.283Z,82.00
2017-11-29T18:07:33.620Z,98.00
2017-11-29T18:10:01.129Z,70.17
2017-11-29T18:12:28.643Z,71.05
2017-11-29T18:14:56.232Z,89.20
2017-11-29T18:17:23.785Z,93.10
2017-11-29T18:19:51.298Z,107.93
2017-11-29T18:22:19.045Z,104.25
2017-11-29T18:24:46.568Z,112.72
2017-11-29T18:27:14.848Z,94.55
2017-11-29T18:29:43.524Z,86.87
2017-11-29T18:32:11.036Z,89.72
2017-11-29T18:34:39.160Z,99.95
2017-11-29T18:37:07.504Z,89.32
2017-11-29T18:39:35.016Z,88.83
2017-11-29T18:42:02.540Z,76.87
2017-11-29T18:44:30.103Z,65.50
2017-11-29T18:46:57.937Z,69.28
2017-11-29T18:49:25.447Z,82.97
2017-11-29T18:51:53.016Z,79.27
2017-11-29T18:54:20.533Z,82.35
2017-11-29T18:56:48.052Z,82.82
2017-11-29T18:59:15.627Z,63.33
2017-11-29T19:01:43.695Z,73.35
2017-11-29T19:04:11.252Z,86.93
2017-11-29T19:06:38.851Z,86.60
2017-11-29T19:09:07.359Z,84.68
2017-11-29T19:11:34.872Z,110.97
2017-11-29T19:14:02.389Z,119.15
2017-11-29T19:16:30.048Z,124.60
2017-11-29T19:18:57.577Z,153.82
2017-11-29T19:21:25.101Z,120.27
2017-11-29T19:23:52.673Z,180.35
2017-11-29T19:26:20.187Z,138.43
2017-11-29T19:28:47.712Z,150.87
2017-11-29T19:31:15.296Z,152.77
2017-11-29T19:33:43.518Z,282.03
2017-11-29T19:36:11.027Z,267.50
2017-11-29T19:38:38.600Z,311.97
2017-11-29T19:41:06.130Z,183.10
2017-11-29T19:43:33.641Z,304.97
2017-11-29T19:46:01.220Z,303.33
2017-11-29T19:48:28.744Z,186.13
2017-11-29T19:50:57.085Z,186.73
2017-11-29T19:53:24.652Z,358.00
2017-11-29T19:55:52.333Z,287.67
2017-11-29T19:58:19.860Z,259.23
2017-11-29T20:00:47.984Z,219.35
2017-11-29T20:03:15.504Z,147.90
2017-11-29T20:05:43.021Z,224.88
2017-11-29T20:08:10.588Z,113.47
2017-11-29T20:10:38.105Z,142.77
2017-11-29T20:13:05.628Z,124.10
2017-11-29T20:15:33.192Z,104.17
2017-11-29T20:18:00.705Z,138.57
2017-11-29T20:20:28.216Z,102.57
2017-11-29T20:22:55.948Z,187.13
2017-11-29T20:25:23.464Z,105.80
2017-11-29T20:27:50.988Z,171.97
2017-11-29T20:30:18.571Z,100.47
2017-11-29T20:32:46.088Z,135.23
2017-11-29T20:35:14.289Z,101.90
2017-11-29T20:37:42.387Z,97.23
2017-11-29T20:40:10.673Z,79.27
2017-11-29T20:42:38.992Z,55.87
2017-11-29T20:45:07.273Z,65.12
2017-11-29T20:47:35.384Z,73.45
2017-11-29T20:50:02.902Z,83.43
2017-11-29T20:52:51.885Z,70.67
2017-11-29T20:55:19.412Z,69.43
2017-11-29T20:57:46.995Z,72.40
2017-11-29T21:00:15.287Z,78.68
2017-11-29T21:02:43.152Z,66.22
2017-11-29T21:05:11.432Z,94.03
2017-11-29T21:07:39.000Z,100.47
2017-11-29T21:10:06.518Z,113.60
2017-11-29T21:12:34.036Z,140.20
2017-11-29T21:15:01.629Z,104.25
2017-11-29T21:17:29.667Z,114.13
2017-11-29T21:19:57.180Z,118.25
2017-11-29T21:22:24.808Z,90.12
2017-11-29T21:24:53.345Z,101.62
2017-11-29T21:27:21.100Z,87.10
2017-11-29T21:29:49.504Z,126.65
2017-11-29T21:32:17.029Z,144.25
2017-11-29T21:34:45.137Z,166.10
2017-11-29T21:37:14.315Z,94.55
2017-11-29T21:39:42.606Z,100.20
2017-11-29T21:42:10.757Z,137.93
2017-11-29T21:44:39.354Z,129.57
2017-11-29T21:47:08.070Z,208.23
2017-11-29T21:49:35.615Z,340.02
2017-11-29T21:52:03.796Z,265.98
2017-11-29T21:54:31.188Z,157.10
2017-11-29T21:56:58.713Z,124.18
2017-11-29T21:59:26.291Z,186.12
2017-11-29T22:01:53.812Z,343.58
2017-11-29T22:04:22.169Z,225.55
2017-11-29T22:06:49.743Z,365.00
2017-11-29T22:09:18.352Z,201.95
2017-11-29T22:11:45.876Z,291.33
2017-11-29T22:14:13.436Z,257.05
2017-11-29T22:16:41.457Z,342.63
2017-11-29T22:19:09.030Z,437.27
2017-11-29T22:21:36.611Z,309.67
2017-11-29T22:24:04.137Z,400.60
2017-11-29T22:26:31.652Z,406.50
2017-11-29T22:29:00.208Z,150.67
2017-11-29T22:31:28.213Z,367.50
2017-11-29T22:33:56.763Z,163.27
2017-11-29T22:36:24.340Z,130.07
2017-11-29T22:38:51.866Z,50.55
2017-11-29T22:41:19.380Z,120.93
2017-11-29T22:43:47.313Z,54.28
2017-11-29T22:46:14.861Z,75.28
2017-11-29T22:48:42.384Z,115.97
2017-11-29T22:51:09.965Z,112.25
2017-11-29T22:53:37.665Z,137.57
2017-11-29T22:56:05.764Z,70.17
2017-11-29T22:58:33.384Z,99.05
2017-11-29T23:01:01.845Z,115.45
2017-11-29T23:03:29.371Z,114.70
2017-11-29T23:05:56.952Z,94.13
2017-11-29T23:08:24.473Z,66.57
2017-11-29T23:10:52.009Z,48.38
2017-11-29T23:13:20.111Z,75.00
2017-11-29T23:15:48.397Z,81.65
2017-11-29T23:18:15.921Z,79.15
2017-11-29T23:20:43.497Z,120.55
2017-11-29T23:23:11.016Z,174.98
2017-11-29T23:25:38.548Z,64.65
2017-11-29T23:28:06.259Z,119.28
2017-11-29T23:30:33.776Z,102.45
2017-11-29T23:33:01.292Z,84.78
2017-11-29T23:35:29.273Z,80.32
2017-11-29T23:37:57.608Z,244.52
2017-11-29T23:40:25.131Z,175.57
2017-11-29T23:42:52.720Z,210.27
2017-11-29T23:45:20.257Z,307.58
2017-11-29T23:47:47.776Z,195.70
2017-11-29T23:50:15.802Z,268.10
2017-11-29T23:52:43.328Z,190.88
2017-11-29T23:55:10.852Z,128.07
2017-11-29T23:57:38.420Z,89.03
